createdAt,value
2023-07-15T00:01:38.564Z,1.30
2023-07-15T00:04:13.779Z,1.42
2023-07-15T00:06:41.705Z,1.52
2023-07-15T00:09:09.596Z,1.38
2023-07-15T00:11:45.501Z,1.40
2023-07-15T00:14:24.818Z,1.33
2023-07-15T00:16:52.213Z,1.10
2023-07-15T00:19:20.604Z,1.30
2023-07-15T00:21:49.635Z,1.20
2023-07-15T00:24:17.094Z,1.30
2023-07-15T00:26:48.594Z,1.20
2023-07-15T00:29:17.734Z,1.65
2023-07-15T00:31:45.533Z,1.40
2023-07-15T00:34:12.861Z,1.50
2023-07-15T00:36:40.423Z,1.50
2023-07-15T00:39:09.397Z,1.70
2023-07-15T00:41:37.158Z,1.40
2023-07-15T00:44:06.517Z,1.50
2023-07-15T00:47:06.716Z,1.43
2023-07-15T00:49:36.246Z,1.40
2023-07-15T00:52:14.506Z,1.55
2023-07-15T00:54:46.233Z,1.50
2023-07-15T00:57:16.851Z,1.70
2023-07-15T00:59:45.915Z,1.50
2023-07-15T01:02:14.005Z,1.40
2023-07-15T01:04:41.923Z,1.30
2023-07-15T01:07:09.182Z,1.40
2023-07-15T01:09:37.028Z,1.47
2023-07-15T01:12:05.660Z,1.83
2023-07-15T01:14:32.920Z,1.63
2023-07-15T01:17:00.281Z,1.47
2023-07-15T01:19:28.668Z,1.80
2023-07-15T01:21:56.671Z,1.50
2023-07-15T01:24:27.898Z,1.47
2023-07-15T01:27:08.533Z,1.67
2023-07-15T01:29:36.046Z,1.70
2023-07-15T01:32:03.240Z,1.50
2023-07-15T01:34:32.349Z,1.70
2023-07-15T01:36:59.722Z,1.60
2023-07-15T01:39:26.990Z,1.70
2023-07-15T01:41:54.321Z,1.47
2023-07-15T01:44:21.473Z,1.60
2023-07-15T01:46:49.226Z,1.60
2023-07-15T01:49:16.467Z,1.63
2023-07-15T01:51:43.709Z,1.65
2023-07-15T01:54:10.974Z,1.60
2023-07-15T01:56:38.168Z,1.70
2023-07-15T01:59:05.350Z,1.77
2023-07-15T02:01:32.847Z,1.70
2023-07-15T02:04:00.890Z,1.77
2023-07-15T02:06:28.239Z,1.70
2023-07-15T02:08:57.746Z,1.83
2023-07-15T02:11:26.616Z,1.60
2023-07-15T02:13:53.927Z,2.00
2023-07-15T02:16:21.148Z,1.70
2023-07-15T02:18:49.612Z,1.50
2023-07-15T02:21:17.129Z,1.93
2023-07-15T02:23:44.999Z,1.87
2023-07-15T02:26:12.384Z,1.83
2023-07-15T02:28:40.021Z,1.97
2023-07-15T02:31:07.251Z,1.90
2023-07-15T02:33:34.554Z,1.73
2023-07-15T02:36:01.901Z,1.80
2023-07-15T02:38:29.088Z,1.70
2023-07-15T02:40:56.609Z,1.57
2023-07-15T02:43:24.494Z,1.90
2023-07-15T02:45:52.328Z,1.60
2023-07-15T02:48:22.577Z,2.10
2023-07-15T02:50:53.900Z,1.60
2023-07-15T02:53:21.690Z,1.77
2023-07-15T02:55:49.591Z,1.80
2023-07-15T02:58:18.679Z,1.90
2023-07-15T03:00:45.918Z,1.90
2023-07-15T03:03:13.334Z,1.70
2023-07-15T03:05:45.941Z,1.83
2023-07-15T03:08:13.093Z,1.97
2023-07-15T03:10:46.129Z,1.80
2023-07-15T03:13:14.226Z,2.30
2023-07-15T03:15:43.204Z,1.92
2023-07-15T03:18:10.612Z,2.20
2023-07-15T03:20:37.857Z,1.70
2023-07-15T03:23:05.494Z,2.05
2023-07-15T03:25:32.827Z,1.80
2023-07-15T03:28:00.508Z,2.30
2023-07-15T03:30:27.812Z,2.33
2023-07-15T03:32:58.458Z,1.97
2023-07-15T03:35:26.675Z,1.60
2023-07-15T03:37:57.120Z,1.90
2023-07-15T03:40:24.361Z,2.20
2023-07-15T03:42:51.531Z,2.30
2023-07-15T03:45:18.791Z,2.33
2023-07-15T03:47:46.284Z,1.97
2023-07-15T03:50:13.501Z,2.03
2023-07-15T03:52:40.721Z,2.00
2023-07-15T03:55:08.299Z,1.95
2023-07-15T03:57:35.736Z,2.00
2023-07-15T04:00:08.014Z,1.80
2023-07-15T04:02:35.478Z,1.80
2023-07-15T04:05:02.804Z,2.00
2023-07-15T04:07:30.010Z,1.90
2023-07-15T04:09:57.314Z,2.00
2023-07-15T04:12:24.566Z,1.90
2023-07-15T04:14:51.784Z,2.00
2023-07-15T04:17:18.989Z,1.90
2023-07-15T04:19:46.330Z,1.95
2023-07-15T04:22:14.349Z,1.73
2023-07-15T04:24:41.677Z,1.77
2023-07-15T04:27:08.872Z,1.70
2023-07-15T04:29:36.064Z,1.55
2023-07-15T04:32:03.338Z,1.52
2023-07-15T04:34:30.504Z,1.52
2023-07-15T04:36:57.707Z,1.30
2023-07-15T04:39:27.295Z,1.40
2023-07-15T04:41:54.521Z,1.20
2023-07-15T04:44:22.234Z,1.20
2023-07-15T04:46:49.737Z,1.13
2023-07-15T04:49:19.142Z,1.15
2023-07-15T04:51:46.685Z,1.00
2023-07-15T04:54:13.811Z,1.10
2023-07-15T04:56:41.445Z,1.20
2023-07-15T04:59:09.169Z,1.52
2023-07-15T05:01:36.519Z,1.25
2023-07-15T05:04:04.873Z,1.40
2023-07-15T05:06:32.810Z,0.93
2023-07-15T05:09:00.019Z,1.00
2023-07-15T05:11:28.066Z,1.30
2023-07-15T05:13:55.360Z,1.40
2023-07-15T05:16:22.720Z,1.30
2023-07-15T05:18:50.428Z,1.40
2023-07-15T05:21:18.195Z,1.38
2023-07-15T05:23:45.434Z,1.13
2023-07-15T05:26:12.748Z,1.17
2023-07-15T05:28:40.119Z,1.13
2023-07-15T05:31:07.394Z,1.48
2023-07-15T05:33:34.780Z,1.15
2023-07-15T05:36:02.480Z,1.27
2023-07-15T05:38:29.771Z,1.20
2023-07-15T05:40:57.502Z,1.13
2023-07-15T05:43:24.800Z,1.13
2023-07-15T05:45:52.201Z,1.33
2023-07-15T05:48:19.500Z,1.30
2023-07-15T05:50:47.251Z,1.27
2023-07-15T05:53:14.518Z,1.10
2023-07-15T05:55:41.843Z,1.23
2023-07-15T05:58:11.506Z,1.10
2023-07-15T06:00:41.035Z,1.10
2023-07-15T06:03:09.988Z,1.00
2023-07-15T06:05:37.754Z,1.30
2023-07-15T06:08:05.608Z,1.30
2023-07-15T06:10:32.991Z,1.13
2023-07-15T06:13:00.253Z,1.08
2023-07-15T06:15:27.561Z,1.20
2023-07-15T06:17:57.343Z,1.17
2023-07-15T06:20:24.977Z,1.10
2023-07-15T06:22:52.310Z,1.20
2023-07-15T06:25:19.638Z,1.20
2023-07-15T06:27:47.834Z,1.08
2023-07-15T06:30:15.099Z,1.10
2023-07-15T06:32:42.469Z,1.02
2023-07-15T06:35:09.833Z,1.08
2023-07-15T06:37:37.763Z,1.40
2023-07-15T06:40:06.159Z,1.23
2023-07-15T06:42:33.417Z,1.10
2023-07-15T06:45:00.696Z,0.90
2023-07-15T06:47:27.978Z,1.10
2023-07-15T06:49:55.253Z,1.23
2023-07-15T06:52:22.418Z,1.20
2023-07-15T06:54:50.810Z,0.95
2023-07-15T06:57:18.007Z,1.20
2023-07-15T06:59:45.375Z,1.13
2023-07-15T07:02:12.484Z,1.25
2023-07-15T07:04:39.918Z,1.20
2023-07-15T07:07:07.329Z,1.10
2023-07-15T07:09:34.557Z,1.20
2023-07-15T07:12:01.921Z,1.20
2023-07-15T07:14:30.461Z,1.38
2023-07-15T07:16:59.470Z,1.30
2023-07-15T07:19:26.640Z,1.40
2023-07-15T07:21:54.122Z,1.40
2023-07-15T07:24:21.350Z,1.33
2023-07-15T07:26:49.487Z,1.30
2023-07-15T07:29:16.919Z,1.10
2023-07-15T07:31:44.086Z,1.20
2023-07-15T07:34:11.250Z,1.25
2023-07-15T07:36:38.439Z,1.00
2023-07-15T07:39:05.580Z,1.10
2023-07-15T07:41:32.766Z,0.90
2023-07-15T07:43:59.921Z,1.20
2023-07-15T07:46:27.154Z,1.08
2023-07-15T07:48:54.446Z,1.10
2023-07-15T07:51:21.612Z,1.05
2023-07-15T07:53:48.776Z,1.23
2023-07-15T07:56:16.017Z,1.40
2023-07-15T07:58:43.593Z,1.30
2023-07-15T08:01:12.592Z,1.27
2023-07-15T08:03:40.327Z,1.20
2023-07-15T08:06:07.627Z,1.30
2023-07-15T08:08:34.942Z,1.10
2023-07-15T08:11:02.134Z,1.30
2023-07-15T08:13:29.329Z,1.42
2023-07-15T08:15:56.727Z,1.58
2023-07-15T08:18:24.086Z,1.60
2023-07-15T08:20:52.371Z,1.20
2023-07-15T08:23:21.415Z,1.45
2023-07-15T08:25:48.884Z,1.20
2023-07-15T08:28:16.107Z,1.17
2023-07-15T08:30:43.352Z,1.17
2023-07-15T08:33:11.523Z,1.17
2023-07-15T08:35:38.813Z,1.10
2023-07-15T08:38:06.155Z,1.23
2023-07-15T08:40:36.320Z,1.30
2023-07-15T08:43:03.849Z,1.17
2023-07-15T08:45:35.072Z,1.30
2023-07-15T08:48:02.931Z,1.33
2023-07-15T08:50:34.420Z,1.20
2023-07-15T08:53:03.154Z,1.10
2023-07-15T08:55:31.341Z,1.23
2023-07-15T08:58:02.265Z,1.40
2023-07-15T09:00:29.996Z,1.50
2023-07-15T09:02:57.438Z,1.30
2023-07-15T09:05:24.749Z,1.40
2023-07-15T09:07:59.429Z,1.38
2023-07-15T09:10:29.701Z,1.30
2023-07-15T09:12:57.339Z,1.73
2023-07-15T09:15:24.908Z,1.30
2023-07-15T09:17:57.795Z,1.20
2023-07-15T09:20:27.986Z,1.33
2023-07-15T09:23:00.679Z,1.20
2023-07-15T09:25:28.684Z,1.20
2023-07-15T09:27:56.341Z,1.20
2023-07-15T09:30:24.220Z,1.35
2023-07-15T09:32:51.616Z,1.40
2023-07-15T09:35:19.621Z,1.42
2023-07-15T09:37:50.386Z,1.42
2023-07-15T09:40:17.876Z,1.20
2023-07-15T09:42:53.795Z,1.58
2023-07-15T09:45:38.269Z,1.40
2023-07-15T09:48:13.499Z,1.23
2023-07-15T09:50:42.776Z,1.45
2023-07-15T09:53:11.300Z,1.33
2023-07-15T09:55:42.297Z,1.13
2023-07-15T09:58:25.401Z,1.17
2023-07-15T10:01:05.524Z,1.00
2023-07-15T10:03:52.542Z,1.00
2023-07-15T10:06:20.198Z,1.10
2023-07-15T10:08:48.558Z,1.30
2023-07-15T10:11:16.968Z,1.55
2023-07-15T10:13:45.031Z,1.08
2023-07-15T10:16:12.860Z,1.10
2023-07-15T10:18:40.139Z,1.00
2023-07-15T10:21:10.683Z,1.10
2023-07-15T10:23:37.948Z,1.02
2023-07-15T10:26:07.378Z,1.20
2023-07-15T10:28:39.681Z,1.00
2023-07-15T10:31:15.951Z,1.00
2023-07-15T10:33:56.773Z,1.10
2023-07-15T10:36:48.853Z,1.00
2023-07-15T10:39:18.702Z,0.82
2023-07-15T10:42:16.253Z,1.10
2023-07-15T10:44:54.233Z,1.00
2023-07-15T10:47:22.657Z,0.95
2023-07-15T10:49:52.812Z,0.98
2023-07-15T10:52:22.502Z,1.00
2023-07-15T10:54:49.950Z,0.90
2023-07-15T10:57:17.749Z,1.33
2023-07-15T10:59:47.068Z,0.98
2023-07-15T11:02:15.059Z,0.80
2023-07-15T11:04:42.757Z,1.00
2023-07-15T11:07:12.137Z,1.02
2023-07-15T11:09:40.961Z,1.02
2023-07-15T11:12:10.195Z,1.10
2023-07-15T11:14:43.661Z,0.90
2023-07-15T11:17:18.925Z,0.90
2023-07-15T11:19:47.347Z,1.20
2023-07-15T11:22:17.946Z,1.02
2023-07-15T11:24:47.652Z,1.00
2023-07-15T11:27:14.967Z,1.02
2023-07-15T11:29:42.172Z,1.08
2023-07-15T11:32:09.436Z,0.90
2023-07-15T11:34:37.083Z,0.80
2023-07-15T11:37:09.509Z,0.90
2023-07-15T11:39:42.228Z,0.90
2023-07-15T11:42:10.213Z,0.88
2023-07-15T11:44:37.848Z,0.90
2023-07-15T11:47:08.748Z,0.90
2023-07-15T11:49:46.038Z,1.10
2023-07-15T11:52:21.581Z,0.90
2023-07-15T11:54:48.872Z,0.88
2023-07-15T11:57:26.196Z,1.00
2023-07-15T11:59:53.550Z,1.10
2023-07-15T12:02:21.931Z,0.88
2023-07-15T12:04:49.922Z,0.80
2023-07-15T12:07:21.509Z,0.77
2023-07-15T12:10:05.420Z,0.82
2023-07-15T12:12:32.693Z,1.00
2023-07-15T12:14:59.895Z,1.17
2023-07-15T12:17:27.104Z,0.85
2023-07-15T12:19:54.237Z,0.90
2023-07-15T12:22:21.384Z,0.85
2023-07-15T12:24:48.572Z,1.00
2023-07-15T12:27:15.799Z,0.70
2023-07-15T12:29:42.920Z,0.75
2023-07-15T12:32:10.218Z,0.80
2023-07-15T12:34:37.561Z,0.82
2023-07-15T12:37:04.883Z,0.88
2023-07-15T12:39:32.128Z,0.80
2023-07-15T12:41:59.330Z,0.90
2023-07-15T12:44:26.834Z,0.70
2023-07-15T12:46:54.236Z,0.90
2023-07-15T12:49:21.484Z,0.90
2023-07-15T12:51:48.708Z,0.80
2023-07-15T12:54:15.882Z,0.80
2023-07-15T12:56:43.147Z,0.73
2023-07-15T12:59:10.381Z,0.93
2023-07-15T13:01:37.705Z,0.80
2023-07-15T13:04:05.361Z,1.20
2023-07-15T13:06:32.926Z,0.63
2023-07-15T13:09:00.095Z,0.70
2023-07-15T13:11:27.478Z,0.65
2023-07-15T13:13:54.630Z,1.00
2023-07-15T13:16:21.973Z,0.77
2023-07-15T13:18:49.185Z,0.70
2023-07-15T13:21:16.907Z,0.90
2023-07-15T13:23:44.945Z,0.82
2023-07-15T13:26:12.198Z,0.80
2023-07-15T13:28:39.588Z,0.98
2023-07-15T13:31:07.007Z,0.88
2023-07-15T13:33:34.330Z,0.70
2023-07-15T13:36:01.636Z,0.73
2023-07-15T13:38:29.005Z,0.88
2023-07-15T13:40:56.265Z,0.90
2023-07-15T13:43:23.627Z,0.80
2023-07-15T13:45:51.158Z,0.85
2023-07-15T13:48:18.887Z,1.00
2023-07-15T13:50:46.114Z,0.98
2023-07-15T13:53:13.818Z,0.70
2023-07-15T13:55:41.097Z,0.85
2023-07-15T13:58:08.298Z,1.13
2023-07-15T14:00:35.755Z,1.08
2023-07-15T14:03:03.456Z,1.00
2023-07-15T14:05:30.815Z,1.05
2023-07-15T14:07:58.141Z,0.93
2023-07-15T14:10:25.413Z,1.00
2023-07-15T14:12:52.677Z,0.63
2023-07-15T14:15:19.947Z,1.00
2023-07-15T14:17:47.302Z,1.00
2023-07-15T14:20:14.870Z,0.90
2023-07-15T14:22:49.600Z,0.90
2023-07-15T14:25:19.438Z,0.90
2023-07-15T14:27:47.175Z,0.80
2023-07-15T14:30:14.495Z,0.80
2023-07-15T14:32:45.097Z,1.00
2023-07-15T14:35:12.388Z,0.90
2023-07-15T14:37:39.664Z,1.08
2023-07-15T14:40:08.338Z,1.17
2023-07-15T14:42:35.669Z,1.00
2023-07-15T14:45:03.003Z,0.80
2023-07-15T14:47:34.627Z,0.80
2023-07-15T14:50:02.087Z,1.00
2023-07-15T14:52:29.278Z,1.08
2023-07-15T14:54:56.458Z,0.90
2023-07-15T14:57:23.768Z,1.05
2023-07-15T14:59:51.026Z,1.00
2023-07-15T15:02:18.351Z,0.80
2023-07-15T15:04:45.623Z,0.90
2023-07-15T15:07:12.755Z,0.90
2023-07-15T15:09:40.499Z,1.13
2023-07-15T15:12:07.868Z,1.10
2023-07-15T15:14:36.422Z,0.90
2023-07-15T15:17:05.273Z,0.80
2023-07-15T15:19:33.271Z,1.75
2023-07-15T15:22:00.760Z,1.17
2023-07-15T15:24:29.120Z,1.30
2023-07-15T15:27:00.108Z,0.90
2023-07-15T15:29:28.472Z,1.25
2023-07-15T15:31:56.892Z,0.93
2023-07-15T15:34:24.492Z,1.10
2023-07-15T15:36:52.093Z,1.30
2023-07-15T15:39:20.092Z,1.10
2023-07-15T15:41:47.698Z,1.10
2023-07-15T15:44:15.274Z,1.13
2023-07-15T15:46:42.594Z,1.20
2023-07-15T15:49:10.137Z,1.15
2023-07-15T15:51:39.082Z,1.08
2023-07-15T15:54:08.103Z,1.20
2023-07-15T15:56:35.425Z,1.20
2023-07-15T15:59:02.890Z,1.23
2023-07-15T16:01:30.445Z,1.20
2023-07-15T16:03:57.685Z,1.33
2023-07-15T16:06:25.122Z,1.20
2023-07-15T16:08:52.682Z,1.15
2023-07-15T16:11:20.247Z,1.20
2023-07-15T16:13:47.711Z,1.13
2023-07-15T16:16:15.141Z,1.40
2023-07-15T16:18:42.344Z,1.23
2023-07-15T16:21:09.673Z,1.20
2023-07-15T16:23:37.057Z,1.45
2023-07-15T16:26:04.524Z,1.35
2023-07-15T16:28:31.984Z,1.23
2023-07-15T16:30:59.436Z,1.30
2023-07-15T16:33:26.882Z,1.52
2023-07-15T16:35:54.401Z,1.35
2023-07-15T16:38:21.776Z,1.20
2023-07-15T16:40:49.034Z,1.48
2023-07-15T16:43:16.406Z,1.40
2023-07-15T16:45:43.772Z,1.30
2023-07-15T16:48:11.565Z,1.40
2023-07-15T16:50:39.053Z,1.55
2023-07-15T16:53:07.512Z,1.50
2023-07-15T16:55:35.999Z,1.30
2023-07-15T16:58:03.251Z,1.35
2023-07-15T17:00:30.699Z,1.20
2023-07-15T17:02:57.961Z,1.35
2023-07-15T17:05:25.359Z,1.40
2023-07-15T17:07:53.255Z,1.30
2023-07-15T17:10:20.479Z,1.30
2023-07-15T17:12:47.927Z,1.42
2023-07-15T17:15:15.401Z,1.40
2023-07-15T17:17:42.673Z,1.48
2023-07-15T17:20:10.484Z,1.40
2023-07-15T17:22:38.342Z,1.40
2023-07-15T17:25:06.502Z,1.60
2023-07-15T17:27:33.963Z,1.40
2023-07-15T17:30:01.245Z,1.80
2023-07-15T17:32:28.595Z,1.23
2023-07-15T17:34:55.936Z,1.30
2023-07-15T17:37:24.714Z,1.23
2023-07-15T17:39:52.097Z,1.30
2023-07-15T17:42:19.351Z,1.55
2023-07-15T17:44:46.670Z,1.35
2023-07-15T17:47:14.298Z,1.10
2023-07-15T17:49:42.160Z,1.40
2023-07-15T17:52:12.508Z,1.50
2023-07-15T17:54:39.872Z,1.20
2023-07-15T17:57:07.583Z,1.20
2023-07-15T17:59:34.834Z,1.27
2023-07-15T18:02:02.152Z,1.30
2023-07-15T18:04:29.506Z,1.48
2023-07-15T18:06:56.801Z,1.20
2023-07-15T18:09:24.104Z,1.20
2023-07-15T18:11:52.237Z,1.20
2023-07-15T18:14:19.633Z,1.35
2023-07-15T18:16:47.163Z,1.20
2023-07-15T18:19:14.457Z,1.10
2023-07-15T18:21:41.655Z,1.20
2023-07-15T18:24:09.289Z,1.08
2023-07-15T18:26:36.706Z,1.10
2023-07-15T18:29:03.958Z,1.30
2023-07-15T18:31:31.270Z,1.00
2023-07-15T18:34:12.869Z,1.00
2023-07-15T18:36:44.803Z,1.13
2023-07-15T18:39:12.095Z,1.00
2023-07-15T18:41:41.457Z,0.88
2023-07-15T18:44:09.742Z,1.10
2023-07-15T18:46:37.058Z,1.20
2023-07-15T18:49:04.329Z,0.93
2023-07-15T18:51:31.619Z,1.00
2023-07-15T18:53:58.854Z,1.20
2023-07-15T18:56:26.141Z,1.00
2023-07-15T18:58:54.564Z,1.00
2023-07-15T19:01:23.191Z,1.30
2023-07-15T19:03:50.475Z,1.30
2023-07-15T19:06:17.763Z,1.13
2023-07-15T19:08:45.119Z,1.10
2023-07-15T19:11:12.499Z,1.20
2023-07-15T19:13:39.743Z,1.13
2023-07-15T19:16:07.119Z,1.50
2023-07-15T19:18:34.409Z,0.98
2023-07-15T19:21:01.872Z,1.50
2023-07-15T19:23:29.235Z,1.30
2023-07-15T19:25:56.626Z,1.20
2023-07-15T19:28:23.934Z,1.33
2023-07-15T19:30:51.361Z,1.20
2023-07-15T19:33:18.888Z,1.30
2023-07-15T19:35:47.301Z,1.10
2023-07-15T19:38:14.574Z,1.25
2023-07-15T19:40:41.714Z,1.20
2023-07-15T19:43:09.025Z,1.48
2023-07-15T19:45:36.283Z,1.55
2023-07-15T19:48:04.096Z,1.40
2023-07-15T19:50:31.331Z,1.20
2023-07-15T19:52:58.692Z,1.13
2023-07-15T19:55:26.103Z,1.40
2023-07-15T19:57:53.493Z,1.42
2023-07-15T20:00:21.280Z,1.40
2023-07-15T20:02:48.756Z,1.50
2023-07-15T20:05:16.157Z,1.40
2023-07-15T20:07:49.185Z,1.20
2023-07-15T20:10:18.941Z,1.40
2023-07-15T20:12:46.680Z,1.55
2023-07-15T20:15:14.413Z,1.58
2023-07-15T20:17:41.846Z,1.55
2023-07-15T20:20:09.761Z,1.20
2023-07-15T20:22:37.001Z,1.60
2023-07-15T20:25:04.604Z,1.60
2023-07-15T20:27:32.098Z,1.33
2023-07-15T20:29:59.979Z,1.58
2023-07-15T20:32:29.532Z,1.60
2023-07-15T20:34:57.866Z,1.48
2023-07-15T20:37:25.042Z,1.55
2023-07-15T20:39:52.284Z,1.60
2023-07-15T20:42:19.600Z,1.30
2023-07-15T20:44:46.853Z,1.52
2023-07-15T20:47:14.169Z,1.27
2023-07-15T20:49:41.478Z,1.40
2023-07-15T20:52:09.524Z,1.63
2023-07-15T20:54:36.690Z,1.38
2023-07-15T20:57:04.224Z,1.30
2023-07-15T20:59:31.503Z,1.58
2023-07-15T21:01:58.897Z,1.67
2023-07-15T21:04:26.152Z,1.35
2023-07-15T21:06:53.424Z,1.40
2023-07-15T21:09:20.793Z,1.55
2023-07-15T21:11:48.325Z,1.40
2023-07-15T21:14:15.579Z,1.42
2023-07-15T21:16:42.972Z,1.60
2023-07-15T21:19:10.266Z,1.40
2023-07-15T21:21:37.563Z,1.52
2023-07-15T21:24:05.002Z,1.52
2023-07-15T21:26:32.255Z,1.40
2023-07-15T21:28:59.478Z,1.17
2023-07-15T21:31:26.807Z,1.63
2023-07-15T21:33:54.669Z,1.42
2023-07-15T21:36:21.925Z,1.67
2023-07-15T21:38:49.322Z,1.88
2023-07-15T21:41:16.643Z,1.52
2023-07-15T21:43:44.478Z,1.52
2023-07-15T21:46:11.695Z,1.60
2023-07-15T21:48:40.403Z,1.70
2023-07-15T21:51:09.739Z,1.73
2023-07-15T21:53:37.059Z,1.63
2023-07-15T21:56:05.041Z,1.33
2023-07-15T21:58:32.302Z,1.60
2023-07-15T22:01:00.456Z,1.90
2023-07-15T22:03:28.008Z,1.80
2023-07-15T22:05:55.944Z,1.70
2023-07-15T22:08:23.542Z,1.63
2023-07-15T22:10:50.814Z,1.80
2023-07-15T22:13:18.214Z,1.80
2023-07-15T22:15:45.794Z,1.70
2023-07-15T22:18:29.599Z,1.60
2023-07-15T22:21:04.960Z,1.70
2023-07-15T22:23:32.151Z,1.83
2023-07-15T22:25:59.681Z,1.67
2023-07-15T22:28:27.115Z,1.67
2023-07-15T22:30:54.756Z,1.60
2023-07-15T22:33:22.745Z,2.03
2023-07-15T22:35:50.100Z,2.10
2023-07-15T22:38:17.356Z,1.80
2023-07-15T22:40:44.923Z,1.80
2023-07-15T22:43:12.545Z,1.85
2023-07-15T22:45:52.011Z,1.95
2023-07-15T22:48:19.734Z,1.80
2023-07-15T22:50:47.243Z,2.10
2023-07-15T22:53:14.420Z,2.00
2023-07-15T22:55:41.596Z,1.92
2023-07-15T22:58:08.844Z,1.73
2023-07-15T23:00:36.294Z,2.15
2023-07-15T23:03:04.591Z,1.83
2023-07-15T23:05:31.935Z,2.10
2023-07-15T23:07:59.169Z,2.08
2023-07-15T23:10:26.445Z,2.20
2023-07-15T23:12:53.697Z,2.00
2023-07-15T23:15:21.054Z,1.90
2023-07-15T23:17:48.340Z,1.80
2023-07-15T23:20:15.817Z,1.90
2023-07-15T23:22:43.119Z,2.10
2023-07-15T23:25:11.183Z,2.05
2023-07-15T23:27:38.456Z,1.90
2023-07-15T23:30:07.093Z,2.30
2023-07-15T23:32:34.488Z,2.00
2023-07-15T23:35:01.899Z,2.13
2023-07-15T23:37:29.621Z,1.92
2023-07-15T23:39:57.442Z,2.22
2023-07-15T23:42:25.230Z,2.00
2023-07-15T23:44:53.254Z,2.25
2023-07-15T23:47:20.657Z,2.15
2023-07-15T23:49:48.917Z,2.20
2023-07-15T23:52:16.901Z,2.15
2023-07-15T23:54:44.304Z,2.00
2023-07-15T23:57:11.587Z,2.05
2023-07-15T23:59:38.897Z,1.98
